sensor_id;sensor_type;location;lat;lon;timestamp;pressure;altitude;pressure_sealevel;temperature;humidity
37778;BME280;23615;51.506;7.678;2023-02-04T00:00:22;101466.78;;;6.27;93.98
37778;BME280;23615;51.506;7.678;2023-02-04T00:02:48;101475.22;;;6.31;94.28
37778;BME280;23615;51.506;7.678;2023-02-04T00:05:16;101465.09;;;6.18;94.31
37778;BME280;23615;51.506;7.678;2023-02-04T00:07:41;101470.41;;;6.26;94.30
37778;BME280;23615;51.506;7.678;2023-02-04T00:10:07;101478.69;;;6.23;94.78
37778;BME280;23615;51.506;7.678;2023-02-04T00:12:33;101476.69;;;6.17;94.83
37778;BME280;23615;51.506;7.678;2023-02-04T00:14:58;101475.34;;;6.21;95.20
37778;BME280;23615;51.506;7.678;2023-02-04T00:17:24;101482.31;;;6.22;94.25
37778;BME280;23615;51.506;7.678;2023-02-04T00:19:49;101480.31;;;6.16;94.63
37778;BME280;23615;51.506;7.678;2023-02-04T00:22:14;101487.19;;;6.35;93.93
37778;BME280;23615;51.506;7.678;2023-02-04T00:24:40;101490.34;;;6.47;93.57
37778;BME280;23615;51.506;7.678;2023-02-04T00:27:07;101493.97;;;6.37;93.43
37778;BME280;23615;51.506;7.678;2023-02-04T00:29:32;101493.63;;;6.32;93.94
37778;BME280;23615;51.506;7.678;2023-02-04T00:31:58;101500.41;;;6.27;94.35
37778;BME280;23615;51.506;7.678;2023-02-04T00:34:23;101508.66;;;6.24;95.27
37778;BME280;23615;51.506;7.678;2023-02-04T00:36:48;101509.09;;;6.11;95.42
37778;BME280;23615;51.506;7.678;2023-02-04T00:39:14;101511.00;;;6.27;94.84
37778;BME280;23615;51.506;7.678;2023-02-04T00:41:39;101503.31;;;6.16;95.54
37778;BME280;23615;51.506;7.678;2023-02-04T00:44:04;101503.19;;;6.17;95.07
37778;BME280;23615;51.506;7.678;2023-02-04T00:46:30;101506.25;;;6.05;95.55
37778;BME280;23615;51.506;7.678;2023-02-04T00:48:55;101502.81;;;6.12;95.74
37778;BME280;23615;51.506;7.678;2023-02-04T00:51:20;101499.84;;;6.15;95.09
37778;BME280;23615;51.506;7.678;2023-02-04T00:53:46;101505.66;;;6.19;95.35
37778;BME280;23615;51.506;7.678;2023-02-04T00:56:11;101510.81;;;6.28;94.94
37778;BME280;23615;51.506;7.678;2023-02-04T00:58:36;101516.81;;;6.30;94.99
37778;BME280;23615;51.506;7.678;2023-02-04T01:01:02;101525.47;;;6.07;95.35
37778;BME280;23615;51.506;7.678;2023-02-04T01:03:27;101536.81;;;5.91;96.47
37778;BME280;23615;51.506;7.678;2023-02-04T01:05:52;101541.47;;;5.97;96.93
37778;BME280;23615;51.506;7.678;2023-02-04T01:08:18;101545.31;;;6.03;96.94
37778;BME280;23615;51.506;7.678;2023-02-04T01:10:43;101538.91;;;6.13;96.27
37778;BME280;23615;51.506;7.678;2023-02-04T01:13:08;101542.50;;;6.04;96.13
37778;BME280;23615;51.506;7.678;2023-02-04T01:15:34;101541.81;;;6.02;96.49
37778;BME280;23615;51.506;7.678;2023-02-04T01:17:59;101547.69;;;6.14;96.63
37778;BME280;23615;51.506;7.678;2023-02-04T01:20:25;101549.16;;;6.08;96.14
37778;BME280;23615;51.506;7.678;2023-02-04T01:22:51;101554.91;;;6.04;97.01
37778;BME280;23615;51.506;7.678;2023-02-04T01:25:16;101551.97;;;6.07;96.83
37778;BME280;23615;51.506;7.678;2023-02-04T01:27:42;101562.06;;;6.11;96.88
37778;BME280;23615;51.506;7.678;2023-02-04T01:30:11;101559.91;;;6.07;96.88
37778;BME280;23615;51.506;7.678;2023-02-04T01:32:37;101556.91;;;5.84;97.60
37778;BME280;23615;51.506;7.678;2023-02-04T01:35:03;101556.50;;;5.71;99.23
37778;BME280;23615;51.506;7.678;2023-02-04T01:37:28;101563.81;;;5.77;98.43
37778;BME280;23615;51.506;7.678;2023-02-04T01:39:54;101564.84;;;5.84;98.46
37778;BME280;23615;51.506;7.678;2023-02-04T01:42:19;101570.66;;;6.05;98.09
37778;BME280;23615;51.506;7.678;2023-02-04T01:44:45;101562.47;;;5.90;97.65
37778;BME280;23615;51.506;7.678;2023-02-04T01:47:10;101578.25;;;6.00;98.08
37778;BME280;23615;51.506;7.678;2023-02-04T01:49:36;101569.09;;;5.77;98.36
37778;BME280;23615;51.506;7.678;2023-02-04T01:52:02;101580.81;;;5.92;98.31
37778;BME280;23615;51.506;7.678;2023-02-04T01:54:28;101581.25;;;6.05;97.89
37778;BME280;23615;51.506;7.678;2023-02-04T01:56:53;101587.19;;;5.99;97.83
37778;BME280;23615;51.506;7.678;2023-02-04T01:59:20;101594.81;;;6.02;98.31
37778;BME280;23615;51.506;7.678;2023-02-04T02:01:48;101592.69;;;6.06;98.03
37778;BME280;23615;51.506;7.678;2023-02-04T02:04:22;101601.41;;;5.98;97.92
37778;BME280;23615;51.506;7.678;2023-02-04T02:06:57;101599.28;;;5.84;98.60
37778;BME280;23615;51.506;7.678;2023-02-04T02:09:25;101590.72;;;6.08;98.07
37778;BME280;23615;51.506;7.678;2023-02-04T02:11:50;101592.69;;;6.06;98.23
37778;BME280;23615;51.506;7.678;2023-02-04T02:14:16;101594.59;;;5.95;98.07
37778;BME280;23615;51.506;7.678;2023-02-04T02:16:41;101594.34;;;6.07;97.73
37778;BME280;23615;51.506;7.678;2023-02-04T02:19:09;101602.34;;;6.15;98.33
37778;BME280;23615;51.506;7.678;2023-02-04T02:21:46;101600.94;;;5.85;98.53
37778;BME280;23615;51.506;7.678;2023-02-04T02:24:24;101600.38;;;5.91;98.95
37778;BME280;23615;51.506;7.678;2023-02-04T02:26:51;101600.88;;;5.94;98.50
37778;BME280;23615;51.506;7.678;2023-02-04T02:29:17;101602.41;;;5.97;98.55
37778;BME280;23615;51.506;7.678;2023-02-04T02:31:43;101608.16;;;5.92;98.74
37778;BME280;23615;51.506;7.678;2023-02-04T02:34:08;101595.44;;;5.96;99.18
37778;BME280;23615;51.506;7.678;2023-02-04T02:36:33;101603.53;;;5.94;98.59
37778;BME280;23615;51.506;7.678;2023-02-04T02:38:59;101597.41;;;5.94;98.83
37778;BME280;23615;51.506;7.678;2023-02-04T02:41:24;101606.78;;;6.06;98.56
37778;BME280;23615;51.506;7.678;2023-02-04T02:43:50;101603.19;;;6.15;98.41
37778;BME280;23615;51.506;7.678;2023-02-04T02:46:15;101607.44;;;6.08;98.52
37778;BME280;23615;51.506;7.678;2023-02-04T02:48:41;101607.75;;;6.05;98.66
37778;BME280;23615;51.506;7.678;2023-02-04T02:51:06;101612.69;;;6.00;98.95
37778;BME280;23615;51.506;7.678;2023-02-04T02:53:31;101614.22;;;6.11;98.31
37778;BME280;23615;51.506;7.678;2023-02-04T02:55:57;101619.03;;;6.07;98.89
37778;BME280;23615;51.506;7.678;2023-02-04T02:58:25;101616.63;;;6.22;98.34
37778;BME280;23615;51.506;7.678;2023-02-04T03:00:52;101610.69;;;6.02;98.41
37778;BME280;23615;51.506;7.678;2023-02-04T03:03:25;101618.66;;;6.02;98.86
37778;BME280;23615;51.506;7.678;2023-02-04T03:05:55;101633.25;;;6.06;98.83
37778;BME280;23615;51.506;7.678;2023-02-04T03:08:23;101618.66;;;6.02;98.97
37778;BME280;23615;51.506;7.678;2023-02-04T03:10:48;101628.69;;;6.16;98.74
37778;BME280;23615;51.506;7.678;2023-02-04T03:13:15;101622.47;;;5.99;99.13
37778;BME280;23615;51.506;7.678;2023-02-04T03:15:42;101630.50;;;5.90;99.32
37778;BME280;23615;51.506;7.678;2023-02-04T03:18:08;101627.47;;;6.11;99.50
37778;BME280;23615;51.506;7.678;2023-02-04T03:20:34;101616.06;;;6.10;98.63
37778;BME280;23615;51.506;7.678;2023-02-04T03:23:00;101625.22;;;6.16;97.88
37778;BME280;23615;51.506;7.678;2023-02-04T03:25:26;101627.44;;;6.03;99.12
37778;BME280;23615;51.506;7.678;2023-02-04T03:27:53;101628.50;;;6.10;98.85
37778;BME280;23615;51.506;7.678;2023-02-04T03:30:22;101633.56;;;6.03;99.57
37778;BME280;23615;51.506;7.678;2023-02-04T03:32:48;101637.56;;;6.07;99.30
37778;BME280;23615;51.506;7.678;2023-02-04T03:35:14;101636.97;;;5.95;99.59
37778;BME280;23615;51.506;7.678;2023-02-04T03:37:39;101633.50;;;5.95;99.98
37778;BME280;23615;51.506;7.678;2023-02-04T03:40:05;101642.75;;;5.91;100.00
37778;BME280;23615;51.506;7.678;2023-02-04T03:42:30;101641.75;;;5.92;100.00
37778;BME280;23615;51.506;7.678;2023-02-04T03:44:56;101635.63;;;6.09;99.86
37778;BME280;23615;51.506;7.678;2023-02-04T03:47:21;101649.06;;;6.16;99.37
37778;BME280;23615;51.506;7.678;2023-02-04T03:49:46;101643.81;;;6.24;98.41
37778;BME280;23615;51.506;7.678;2023-02-04T03:52:11;101646.81;;;6.29;98.07
37778;BME280;23615;51.506;7.678;2023-02-04T03:54:37;101648.44;;;6.22;98.53
37778;BME280;23615;51.506;7.678;2023-02-04T03:57:02;101651.56;;;6.17;98.72
37778;BME280;23615;51.506;7.678;2023-02-04T03:59:27;101656.38;;;6.22;98.83
37778;BME280;23615;51.506;7.678;2023-02-04T04:01:53;101658.84;;;6.15;98.48
37778;BME280;23615;51.506;7.678;2023-02-04T04:04:18;101663.75;;;6.10;98.55
37778;BME280;23615;51.506;7.678;2023-02-04T04:06:43;101663.50;;;6.21;98.89
37778;BME280;23615;51.506;7.678;2023-02-04T04:09:09;101666.44;;;6.36;98.21
37778;BME280;23615;51.506;7.678;2023-02-04T04:11:34;101673.94;;;6.23;98.03
37778;BME280;23615;51.506;7.678;2023-02-04T04:13:59;101679.13;;;6.07;98.94
37778;BME280;23615;51.506;7.678;2023-02-04T04:16:25;101680.06;;;5.97;99.39
37778;BME280;23615;51.506;7.678;2023-02-04T04:18:50;101684.50;;;6.15;98.94
37778;BME280;23615;51.506;7.678;2023-02-04T04:21:16;101692.25;;;6.08;99.06
37778;BME280;23615;51.506;7.678;2023-02-04T04:23:41;101697.69;;;6.07;99.68
37778;BME280;23615;51.506;7.678;2023-02-04T04:26:06;101694.56;;;6.11;99.89
37778;BME280;23615;51.506;7.678;2023-02-04T04:28:31;101698.75;;;5.96;100.00
37778;BME280;23615;51.506;7.678;2023-02-04T04:30:57;101704.50;;;6.09;99.82
37778;BME280;23615;51.506;7.678;2023-02-04T04:33:22;101706.91;;;6.03;100.00
37778;BME280;23615;51.506;7.678;2023-02-04T04:35:47;101713.94;;;6.12;100.00
37778;BME280;23615;51.506;7.678;2023-02-04T04:38:13;101718.09;;;6.14;100.00
37778;BME280;23615;51.506;7.678;2023-02-04T04:40:38;101707.22;;;6.17;99.64
37778;BME280;23615;51.506;7.678;2023-02-04T04:43:03;101707.44;;;6.24;99.56
37778;BME280;23615;51.506;7.678;2023-02-04T04:45:28;101709.47;;;6.12;99.64
37778;BME280;23615;51.506;7.678;2023-02-04T04:47:54;101711.88;;;6.23;99.55
37778;BME280;23615;51.506;7.678;2023-02-04T04:50:19;101712.66;;;6.16;99.42
37778;BME280;23615;51.506;7.678;2023-02-04T04:52:44;101715.72;;;6.29;99.40
37778;BME280;23615;51.506;7.678;2023-02-04T04:55:10;101710.53;;;6.19;98.94
37778;BME280;23615;51.506;7.678;2023-02-04T04:57:35;101705.59;;;6.24;98.91
37778;BME280;23615;51.506;7.678;2023-02-04T05:00:04;101713.16;;;6.19;99.66
37778;BME280;23615;51.506;7.678;2023-02-04T05:02:30;101714.84;;;6.20;99.85
37778;BME280;23615;51.506;7.678;2023-02-04T05:04:55;101723.78;;;6.19;100.00
37778;BME280;23615;51.506;7.678;2023-02-04T05:07:21;101734.00;;;6.14;99.90
37778;BME280;23615;51.506;7.678;2023-02-04T05:09:46;101730.91;;;6.01;100.00
37778;BME280;23615;51.506;7.678;2023-02-04T05:12:11;101730.91;;;6.01;100.00
37778;BME280;23615;51.506;7.678;2023-02-04T05:14:37;101738.84;;;6.01;100.00
37778;BME280;23615;51.506;7.678;2023-02-04T05:17:02;101745.09;;;6.10;100.00
37778;BME280;23615;51.506;7.678;2023-02-04T05:19:27;101748.84;;;6.07;100.00
37778;BME280;23615;51.506;7.678;2023-02-04T05:21:53;101735.63;;;6.07;100.00
37778;BME280;23615;51.506;7.678;2023-02-04T05:24:18;101734.78;;;6.07;100.00
37778;BME280;23615;51.506;7.678;2023-02-04T05:26:43;101733.47;;;6.11;100.00
37778;BME280;23615;51.506;7.678;2023-02-04T05:29:08;101738.69;;;6.20;100.00
37778;BME280;23615;51.506;7.678;2023-02-04T05:31:34;101742.72;;;6.24;100.00
37778;BME280;23615;51.506;7.678;2023-02-04T05:34:00;101745.44;;;6.15;99.92
37778;BME280;23615;51.506;7.678;2023-02-04T05:36:26;101744.59;;;6.14;100.00
37778;BME280;23615;51.506;7.678;2023-02-04T05:38:51;101746.91;;;6.09;100.00
37778;BME280;23615;51.506;7.678;2023-02-04T05:41:17;101756.81;;;6.07;100.00
37778;BME280;23615;51.506;7.678;2023-02-04T05:43:42;101759.47;;;6.07;100.00
37778;BME280;23615;51.506;7.678;2023-02-04T05:46:07;101763.22;;;6.22;100.00
37778;BME280;23615;51.506;7.678;2023-02-04T05:48:33;101772.72;;;6.07;100.00
37778;BME280;23615;51.506;7.678;2023-02-04T05:50:58;101766.63;;;6.15;100.00
37778;BME280;23615;51.506;7.678;2023-02-04T05:53:23;101780.25;;;6.20;100.00
37778;BME280;23615;51.506;7.678;2023-02-04T05:55:49;101782.75;;;6.21;100.00
37778;BME280;23615;51.506;7.678;2023-02-04T05:58:14;101774.66;;;6.23;99.85
37778;BME280;23615;51.506;7.678;2023-02-04T06:00:39;101772.47;;;6.18;99.88
37778;BME280;23615;51.506;7.678;2023-02-04T06:03:05;101779.53;;;6.27;100.00
37778;BME280;23615;51.506;7.678;2023-02-04T06:05:31;101783.91;;;6.19;100.00
37778;BME280;23615;51.506;7.678;2023-02-04T06:07:56;101786.78;;;6.08;100.00
37778;BME280;23615;51.506;7.678;2023-02-04T06:10:22;101784.91;;;6.00;100.00
37778;BME280;23615;51.506;7.678;2023-02-04T06:12:47;101789.03;;;6.03;100.00
37778;BME280;23615;51.506;7.678;2023-02-04T06:15:12;101783.88;;;6.01;100.00
37778;BME280;23615;51.506;7.678;2023-02-04T06:17:38;101786.78;;;6.08;100.00
37778;BME280;23615;51.506;7.678;2023-02-04T06:20:04;101800.31;;;6.05;100.00
37778;BME280;23615;51.506;7.678;2023-02-04T06:22:29;101799.94;;;5.99;100.00
37778;BME280;23615;51.506;7.678;2023-02-04T06:24:54;101802.22;;;6.12;100.00
37778;BME280;23615;51.506;7.678;2023-02-04T06:27:20;101806.16;;;6.08;100.00
37778;BME280;23615;51.506;7.678;2023-02-04T06:29:52;101809.13;;;6.23;100.00
37778;BME280;23615;51.506;7.678;2023-02-04T06:32:17;101808.50;;;6.11;100.00
37778;BME280;23615;51.506;7.678;2023-02-04T06:34:43;101814.78;;;6.10;100.00
37778;BME280;23615;51.506;7.678;2023-02-04T06:37:09;101813.34;;;6.16;100.00
37778;BME280;23615;51.506;7.678;2023-02-04T06:39:34;101819.66;;;6.32;100.00
37778;BME280;23615;51.506;7.678;2023-02-04T06:42:00;101816.09;;;6.42;99.61
37778;BME280;23615;51.506;7.678;2023-02-04T06:44:25;101820.56;;;6.41;99.47
37778;BME280;23615;51.506;7.678;2023-02-04T06:46:50;101819.50;;;6.52;99.36
37778;BME280;23615;51.506;7.678;2023-02-04T06:49:16;101823.13;;;6.15;99.51
37778;BME280;23615;51.506;7.678;2023-02-04T06:51:41;101823.81;;;6.17;100.00
37778;BME280;23615;51.506;7.678;2023-02-04T06:54:06;101830.84;;;6.09;100.00
37778;BME280;23615;51.506;7.678;2023-02-04T06:56:31;101830.09;;;6.16;100.00
37778;BME280;23615;51.506;7.678;2023-02-04T06:58:57;101831.38;;;6.12;100.00
37778;BME280;23615;51.506;7.678;2023-02-04T07:01:22;101831.44;;;6.03;100.00
37778;BME280;23615;51.506;7.678;2023-02-04T07:03:47;101830.31;;;6.05;100.00
37778;BME280;23615;51.506;7.678;2023-02-04T07:06:13;101840.81;;;5.97;100.00
37778;BME280;23615;51.506;7.678;2023-02-04T07:08:38;101838.78;;;6.09;100.00
37778;BME280;23615;51.506;7.678;2023-02-04T07:11:03;101846.81;;;6.17;100.00
37778;BME280;23615;51.506;7.678;2023-02-04T07:13:29;101851.16;;;6.18;100.00
37778;BME280;23615;51.506;7.678;2023-02-04T07:15:54;101850.31;;;6.17;100.00
37778;BME280;23615;51.506;7.678;2023-02-04T07:18:19;101854.09;;;6.32;100.00
37778;BME280;23615;51.506;7.678;2023-02-04T07:20:45;101857.56;;;6.15;100.00
37778;BME280;23615;51.506;7.678;2023-02-04T07:23:10;101860.38;;;6.14;100.00
37778;BME280;23615;51.506;7.678;2023-02-04T07:25:35;101860.97;;;6.08;100.00
37778;BME280;23615;51.506;7.678;2023-02-04T07:28:03;101862.31;;;6.12;100.00
37778;BME280;23615;51.506;7.678;2023-02-04T07:30:30;101867.56;;;6.21;100.00
37778;BME280;23615;51.506;7.678;2023-02-04T07:32:55;101859.25;;;6.16;100.00
37778;BME280;23615;51.506;7.678;2023-02-04T07:35:21;101858.56;;;6.14;100.00
37778;BME280;23615;51.506;7.678;2023-02-04T07:37:46;101862.03;;;6.15;100.00
37778;BME280;23615;51.506;7.678;2023-02-04T07:40:11;101856.13;;;6.21;100.00
37778;BME280;23615;51.506;7.678;2023-02-04T07:42:37;101863.72;;;6.16;100.00
37778;BME280;23615;51.506;7.678;2023-02-04T07:45:02;101865.06;;;6.20;100.00
37778;BME280;23615;51.506;7.678;2023-02-04T07:47:28;101869.22;;;6.22;100.00
37778;BME280;23615;51.506;7.678;2023-02-04T07:49:53;101866.66;;;6.30;100.00
37778;BME280;23615;51.506;7.678;2023-02-04T07:52:24;101862.19;;;6.31;100.00
37778;BME280;23615;51.506;7.678;2023-02-04T07:54:49;101869.09;;;6.42;100.00
37778;BME280;23615;51.506;7.678;2023-02-04T07:57:16;101878.94;;;6.49;100.00
37778;BME280;23615;51.506;7.678;2023-02-04T07:59:41;101871.59;;;6.43;100.00
37778;BME280;23615;51.506;7.678;2023-02-04T08:02:08;101879.84;;;6.58;100.00
37778;BME280;23615;51.506;7.678;2023-02-04T08:04:33;101876.16;;;6.51;99.96
37778;BME280;23615;51.506;7.678;2023-02-04T08:06:58;101879.09;;;6.65;100.00
37778;BME280;23615;51.506;7.678;2023-02-04T08:09:24;101892.81;;;6.43;100.00
37778;BME280;23615;51.506;7.678;2023-02-04T08:11:51;101883.94;;;6.34;100.00
37778;BME280;23615;51.506;7.678;2023-02-04T08:14:17;101885.69;;;6.26;100.00
37778;BME280;23615;51.506;7.678;2023-02-04T08:16:42;101894.50;;;6.44;100.00
37778;BME280;23615;51.506;7.678;2023-02-04T08:19:08;101888.13;;;6.55;100.00
37778;BME280;23615;51.506;7.678;2023-02-04T08:21:33;101899.41;;;6.57;100.00
37778;BME280;23615;51.506;7.678;2023-02-04T08:23:58;101897.50;;;6.49;100.00
37778;BME280;23615;51.506;7.678;2023-02-04T08:26:24;101901.47;;;6.45;100.00
37778;BME280;23615;51.506;7.678;2023-02-04T08:28:49;101903.72;;;6.40;100.00
37778;BME280;23615;51.506;7.678;2023-02-04T08:31:14;101911.88;;;6.47;100.00
37778;BME280;23615;51.506;7.678;2023-02-04T08:33:40;101912.59;;;6.49;100.00
37778;BME280;23615;51.506;7.678;2023-02-04T08:36:06;101919.56;;;6.67;100.00
37778;BME280;23615;51.506;7.678;2023-02-04T08:38:31;101909.50;;;6.71;100.00
37778;BME280;23615;51.506;7.678;2023-02-04T08:40:56;101912.84;;;6.73;100.00
37778;BME280;23615;51.506;7.678;2023-02-04T08:43:22;101923.28;;;6.74;100.00
37778;BME280;23615;51.506;7.678;2023-02-04T08:45:47;101934.06;;;6.73;100.00
37778;BME280;23615;51.506;7.678;2023-02-04T08:48:12;101931.22;;;6.74;100.00
37778;BME280;23615;51.506;7.678;2023-02-04T08:50:37;101935.69;;;6.56;100.00
37778;BME280;23615;51.506;7.678;2023-02-04T08:53:03;101937.13;;;6.51;100.00
37778;BME280;23615;51.506;7.678;2023-02-04T08:55:28;101940.41;;;6.62;100.00
37778;BME280;23615;51.506;7.678;2023-02-04T08:58:14;101940.63;;;6.69;100.00
37778;BME280;23615;51.506;7.678;2023-02-04T09:00:40;101937.84;;;6.70;100.00
37778;BME280;23615;51.506;7.678;2023-02-04T09:03:05;101949.50;;;6.60;100.00
37778;BME280;23615;51.506;7.678;2023-02-04T09:05:30;101959.63;;;6.47;100.00
37778;BME280;23615;51.506;7.678;2023-02-04T09:07:55;101957.75;;;6.57;100.00
37778;BME280;23615;51.506;7.678;2023-02-04T09:10:21;101959.81;;;6.63;100.00
37778;BME280;23615;51.506;7.678;2023-02-04T09:12:46;101966.94;;;6.62;100.00
37778;BME280;23615;51.506;7.678;2023-02-04T09:15:12;101974.47;;;6.57;100.00
37778;BME280;23615;51.506;7.678;2023-02-04T09:17:38;101963.97;;;6.65;100.00
37778;BME280;23615;51.506;7.678;2023-02-04T09:20:04;101967.00;;;6.70;100.00
37778;BME280;23615;51.506;7.678;2023-02-04T09:22:30;101963.81;;;6.67;100.00
37778;BME280;23615;51.506;7.678;2023-02-04T09:24:55;101973.59;;;6.66;100.00
37778;BME280;23615;51.506;7.678;2023-02-04T09:27:20;101979.72;;;6.67;100.00
37778;BME280;23615;51.506;7.678;2023-02-04T09:29:46;101976.31;;;6.74;100.00
37778;BME280;23615;51.506;7.678;2023-02-04T09:32:11;101976.50;;;6.73;100.00
37778;BME280;23615;51.506;7.678;2023-02-04T09:34:37;101975.03;;;6.79;100.00
37778;BME280;23615;51.506;7.678;2023-02-04T09:37:02;101972.41;;;6.79;100.00
37778;BME280;23615;51.506;7.678;2023-02-04T09:39:28;101982.72;;;6.82;100.00
37778;BME280;23615;51.506;7.678;2023-02-04T09:41:53;101971.34;;;6.89;99.64
37778;BME280;23615;51.506;7.678;2023-02-04T09:44:20;101977.56;;;6.80;99.82
37778;BME280;23615;51.506;7.678;2023-02-04T09:46:51;101977.16;;;6.75;99.78
37778;BME280;23615;51.506;7.678;2023-02-04T09:49:17;101985.81;;;6.77;99.65
37778;BME280;23615;51.506;7.678;2023-02-04T09:51:44;101984.59;;;6.89;99.69
37778;BME280;23615;51.506;7.678;2023-02-04T09:54:13;101989.00;;;6.98;99.16
37778;BME280;23615;51.506;7.678;2023-02-04T09:56:39;101982.56;;;7.01;98.68
37778;BME280;23615;51.506;7.678;2023-02-04T09:59:12;101992.56;;;7.07;98.75
37778;BME280;23615;51.506;7.678;2023-02-04T10:01:38;101996.19;;;7.06;98.84
37778;BME280;23615;51.506;7.678;2023-02-04T10:04:04;102001.03;;;7.10;98.50
37778;BME280;23615;51.506;7.678;2023-02-04T10:06:29;102005.38;;;7.11;98.54
37778;BME280;23615;51.506;7.678;2023-02-04T10:08:55;102014.56;;;7.17;98.69
37778;BME280;23615;51.506;7.678;2023-02-04T10:11:22;102005.00;;;7.24;98.47
37778;BME280;23615;51.506;7.678;2023-02-04T10:13:50;101990.84;;;7.41;97.17
37778;BME280;23615;51.506;7.678;2023-02-04T10:16:29;101991.41;;;7.45;96.29
37778;BME280;23615;51.506;7.678;2023-02-04T10:19:00;101991.66;;;7.60;95.89
37778;BME280;23615;51.506;7.678;2023-02-04T10:21:28;101999.56;;;7.77;93.65
37778;BME280;23615;51.506;7.678;2023-02-04T10:23:58;102007.09;;;7.82;92.31
37778;BME280;23615;51.506;7.678;2023-02-04T10:26:27;102009.50;;;7.75;91.96
37778;BME280;23615;51.506;7.678;2023-02-04T10:29:05;102016.09;;;7.63;92.63
37778;BME280;23615;51.506;7.678;2023-02-04T10:31:40;102006.13;;;7.65;92.00
37778;BME280;23615;51.506;7.678;2023-02-04T10:34:09;102014.94;;;7.66;91.98
37778;BME280;23615;51.506;7.678;2023-02-04T10:36:35;102006.84;;;7.75;91.25
37778;BME280;23615;51.506;7.678;2023-02-04T10:39:03;102013.06;;;7.84;91.40
37778;BME280;23615;51.506;7.678;2023-02-04T10:41:29;102016.94;;;7.89;89.90
37778;BME280;23615;51.506;7.678;2023-02-04T10:44:06;102015.47;;;7.69;91.04
37778;BME280;23615;51.506;7.678;2023-02-04T10:46:33;102017.28;;;7.69;91.43
37778;BME280;23615;51.506;7.678;2023-02-04T10:48:58;102017.97;;;7.97;91.38
37778;BME280;23615;51.506;7.678;2023-02-04T10:51:24;102019.22;;;7.84;91.59
37778;BME280;23615;51.506;7.678;2023-02-04T10:53:49;102024.81;;;7.73;92.76
37778;BME280;23615;51.506;7.678;2023-02-04T10:56:33;102013.53;;;7.79;93.00
37778;BME280;23615;51.506;7.678;2023-02-04T10:58:58;102021.81;;;7.76;93.51
37778;BME280;23615;51.506;7.678;2023-02-04T11:01:25;102022.31;;;7.72;93.39
37778;BME280;23615;51.506;7.678;2023-02-04T11:03:52;102018.78;;;7.97;92.69
37778;BME280;23615;51.506;7.678;2023-02-04T11:06:21;102021.03;;;8.10;90.96
37778;BME280;23615;51.506;7.678;2023-02-04T11:08:47;102017.69;;;8.08;90.97
37778;BME280;23615;51.506;7.678;2023-02-04T11:11:22;102022.59;;;7.95;91.59
37778;BME280;23615;51.506;7.678;2023-02-04T11:18:48;102026.28;;;8.02;90.75
37778;BME280;23615;51.506;7.678;2023-02-04T11:21:22;102025.78;;;7.98;90.24
37778;BME280;23615;51.506;7.678;2023-02-04T11:23:48;102030.94;;;8.00;90.01
37778;BME280;23615;51.506;7.678;2023-02-04T11:26:18;102026.22;;;8.19;90.15
37778;BME280;23615;51.506;7.678;2023-02-04T11:33:50;102023.97;;;7.99;90.24
37778;BME280;23615;51.506;7.678;2023-02-04T11:36:26;102020.63;;;7.97;89.21
37778;BME280;23615;51.506;7.678;2023-02-04T11:38:51;102022.03;;;8.09;89.53
37778;BME280;23615;51.506;7.678;2023-02-04T11:41:26;102026.16;;;8.11;89.56
37778;BME280;23615;51.506;7.678;2023-02-04T11:43:54;102019.34;;;8.35;88.72
37778;BME280;23615;51.506;7.678;2023-02-04T11:46:21;102017.72;;;8.42;88.54
37778;BME280;23615;51.506;7.678;2023-02-04T11:48:55;102019.38;;;8.43;88.97
37778;BME280;23615;51.506;7.678;2023-02-04T11:51:33;102012.72;;;8.47;88.70
37778;BME280;23615;51.506;7.678;2023-02-04T11:53:59;102015.44;;;8.55;89.61
37778;BME280;23615;51.506;7.678;2023-02-04T11:56:27;102014.94;;;8.59;89.01
37778;BME280;23615;51.506;7.678;2023-02-04T11:58:55;102010.78;;;8.57;89.14
37778;BME280;23615;51.506;7.678;2023-02-04T12:01:23;102014.63;;;8.62;88.93
37778;BME280;23615;51.506;7.678;2023-02-04T12:03:57;102019.63;;;8.66;88.34
37778;BME280;23615;51.506;7.678;2023-02-04T12:06:28;102021.97;;;8.77;87.66
37778;BME280;23615;51.506;7.678;2023-02-04T12:11:55;102027.84;;;8.88;85.38
37778;BME280;23615;51.506;7.678;2023-02-04T12:14:21;102019.34;;;8.85;85.24
37778;BME280;23615;51.506;7.678;2023-02-04T12:16:52;102017.44;;;8.53;85.59
37778;BME280;23615;51.506;7.678;2023-02-04T12:19:17;102021.91;;;8.52;86.32
37778;BME280;23615;51.506;7.678;2023-02-04T12:21:43;102016.41;;;8.46;86.80
37778;BME280;23615;51.506;7.678;2023-02-04T12:24:08;102023.19;;;8.40;87.36
37778;BME280;23615;51.506;7.678;2023-02-04T12:26:34;102025.97;;;8.65;86.46
37778;BME280;23615;51.506;7.678;2023-02-04T12:28:59;102025.78;;;8.66;86.61
37778;BME280;23615;51.506;7.678;2023-02-04T12:31:28;102025.25;;;8.54;85.44
37778;BME280;23615;51.506;7.678;2023-02-04T12:33:53;102033.16;;;8.38;86.49
37778;BME280;23615;51.506;7.678;2023-02-04T12:36:19;102036.47;;;8.40;87.45
37778;BME280;23615;51.506;7.678;2023-02-04T12:38:44;102044.00;;;8.45;88.17
37778;BME280;23615;51.506;7.678;2023-02-04T12:41:10;102047.84;;;8.50;86.63
37778;BME280;23615;51.506;7.678;2023-02-04T12:43:35;102042.38;;;8.60;84.68
37778;BME280;23615;51.506;7.678;2023-02-04T12:46:00;102042.88;;;8.55;85.29
37778;BME280;23615;51.506;7.678;2023-02-04T12:48:26;102043.50;;;8.49;86.59
37778;BME280;23615;51.506;7.678;2023-02-04T12:50:51;102041.38;;;8.53;86.85
37778;BME280;23615;51.506;7.678;2023-02-04T12:53:16;102038.91;;;8.59;86.43
37778;BME280;23615;51.506;7.678;2023-02-04T12:55:41;102039.53;;;8.53;85.07
37778;BME280;23615;51.506;7.678;2023-02-04T12:58:07;102041.19;;;8.46;86.34
37778;BME280;23615;51.506;7.678;2023-02-04T13:00:32;102047.19;;;8.56;85.94
37778;BME280;23615;51.506;7.678;2023-02-04T13:02:58;102053.66;;;8.46;86.74
37778;BME280;23615;51.506;7.678;2023-02-04T13:05:24;102045.69;;;8.54;86.46